Flight Track Log - Related Links

Times and Time Zones

All times are in EDT time to prevent confusion due to time zone crossing. See the LXJ437 flight status page for this flight to view local times or setup timezone preferences in your user account.

Time Position Orientation Groundspeed Altitude Reporting Facility
EDT Latitude Longitude Course Direction KTS MPH feet Rate Location/Type
Sun 03:15:01 PM 31.8703 -102.3422 270° West 284 327 12,000  Level Fort Worth Center
Sun 03:16:01 PM 31.8744 -102.4500 273° West 308 354 15,200 3,200 Climbing Fort Worth Center
Sun 03:17:01 PM 31.8739 -102.5675 270° West 344 396 18,400 3,300 Climbing Fort Worth Center
Sun 03:18:00 PM 31.8775 -103.0592 263° West  Level FlightAware Approximate
Sun 03:18:01 PM 31.8747 -102.6969 270° West 372 428 21,800  Level Fort Worth Center
Sun 03:18:59 PM 31.8733 -102.8192 269° West 389 448 25,300 3,250 Climbing Albuquerque Center
Sun 03:19:00 PM 31.8667 -103.1812 270° West  Level FlightAware Approximate
Sun 03:20:00 PM 31.8667 -103.3040 270° West  Level FlightAware Approximate
Sun 03:20:01 PM 31.8733 -102.9425 270° West 383 441 28,300  Level Albuquerque Center
Sun 03:21:03 PM 31.8742 -103.0672 270° West 383 441 30,700 2,537 Climbing Albuquerque Center
Sun 03:22:04 PM 31.8736 -103.2042 270° West 380 437 33,500 1,610 Climbing Albuquerque Center
Sun 03:23:06 PM 31.8683 -103.3311 267° West 385 443 34,000 242 Climbing Albuquerque Center
Sun 03:24:08 PM 31.8583 -103.4683 265° West 414 476 34,000  Level Albuquerque Center
Sun 03:25:10 PM 31.8494 -103.6067 266° West 422 486 34,000  Level Albuquerque Center
Sun 03:26:11 PM 31.8400 -103.7522 266° West 419 482 34,000  Level Albuquerque Center
Sun 03:27:13 PM 31.8314 -103.9044 266° West 411 473 34,000  Level Albuquerque Center
Sun 03:28:15 PM 31.8228 -104.0408 266° West 417 480 34,000  Level Albuquerque Center
Sun 03:29:17 PM 31.7925 -104.1733 255° West 427 491 34,000 293 Level Albuquerque Center
Sun 03:30:18 PM 31.7397 -104.2969 243° Southwest 427 491 34,600 1,220 Climbing Albuquerque Center
Sun 03:31:20 PM 31.6906 -104.4186 245° Southwest 419 482 36,500 1,790 Climbing Albuquerque Center
Sun 03:32:22 PM 31.6483 -104.5381 247° West 406 467 38,300 1,548 Climbing Albuquerque Center
Sun 03:33:24 PM 31.6703 -104.6911 280° West 404 465 39,700 823 Climbing Albuquerque Center
Sun 03:34:26 PM 31.7033 -104.8172 287° West 406 467 40,000 146 Climbing Albuquerque Center
Sun 03:35:27 PM 31.7364 -104.9497 286° West 419 482 40,000  Level Albuquerque Center
Sun 03:36:29 PM 31.7683 -105.0764 287° West 413 475 40,000  Level Albuquerque Center
Sun 03:37:31 PM 31.8008 -105.1994 287° West 401 461 40,000 48 Level Albuquerque Center
Sun 03:38:33 PM 31.8311 -105.3264 286° West 404 465 40,100 732 Climbing Albuquerque Center
Sun 03:39:34 PM 31.8692 -105.4792 286° West 405 466 41,500 1,220 Climbing Albuquerque Center
Sun 03:40:36 PM 31.9006 -105.6036 287° West 400 460 42,600 726 Climbing Albuquerque Center
Sun 03:41:38 PM 31.9308 -105.7281 286° West 398 458 43,000 194 Climbing Albuquerque Center
Sun 03:42:40 PM 31.9625 -105.8539 287° West 402 463 43,000  Level Albuquerque Center
Sun 03:43:41 PM 31.9964 -105.9889 287° West 396 456 43,000  Level Albuquerque Center
Sun 03:44:43 PM 32.0267 -106.1122 286° West 394 453 43,000  Level Albuquerque Center
Sun 03:45:45 PM 32.0567 -106.2364 286° West 396 456 43,000  Level Albuquerque Center
Sun 03:46:46 PM 32.0872 -106.3619 286° West 399 459 43,000  Level Albuquerque Center
Sun 03:47:48 PM 32.1172 -106.4883 286° West 400 460 43,000  Level Albuquerque Center
Sun 03:48:50 PM 32.1475 -106.6142 286° West 399 459 43,000  Level Albuquerque Center
Sun 03:49:52 PM 32.1767 -106.7406 285° West 399 459 43,000  Level Albuquerque Center
Sun 03:50:53 PM 32.2142 -106.8964 286° West 401 461 43,000  Level Albuquerque Center
Sun 03:51:55 PM 32.2439 -107.0225 286° West 400 460 43,000  Level Albuquerque Center
Sun 03:52:57 PM 32.2769 -107.1592 286° West 402 463 43,000  Level Albuquerque Center
Sun 03:53:59 PM 32.2997 -107.2722 283° West 408 470 43,000  Level Albuquerque Center
Sun 03:55:00 PM 32.3281 -107.3986 285° West 404 465 43,000  Level Albuquerque Center
Sun 03:56:02 PM 32.3603 -107.5394 285° West 403 464 43,000  Level Albuquerque Center
Sun 03:57:04 PM 32.3894 -107.6653 285° West 398 458 43,000  Level Albuquerque Center
Sun 03:58:06 PM 32.4186 -107.7919 285° West 398 458 43,000  Level Albuquerque Center
Sun 03:59:07 PM 32.4492 -107.9261 285° West 398 458 43,000  Level Albuquerque Center
Sun 04:00:09 PM 32.4772 -108.0514 285° West 397 457 43,000  Level Albuquerque Center
Sun 04:01:11 PM 32.5111 -108.2003 285° West 394 453 43,000  Level Albuquerque Center
Sun 04:02:13 PM 32.5392 -108.3239 285° West 392 451 43,000  Level Albuquerque Center
Sun 04:03:15 PM 32.5669 -108.4503 285° West 396 456 43,000  Level Albuquerque Center
Sun 04:04:17 PM 32.5944 -108.5742 285° West 393 452 43,000  Level Albuquerque Center
Sun 04:05:18 PM 32.6214 -108.6992 284° West 392 451 43,000  Level Albuquerque Center
Sun 04:06:20 PM 32.6483 -108.8233 284° West 390 449 43,000  Level Albuquerque Center
Sun 04:07:22 PM 32.6747 -108.9478 284° West 389 448 43,000  Level Albuquerque Center
Sun 04:08:24 PM 32.7086 -109.0981 285° West 390 449 43,000  Level Albuquerque Center
Sun 04:09:26 PM 32.7356 -109.2250 284° West 393 452 43,000  Level Albuquerque Center
Sun 04:10:28 PM 32.7625 -109.3514 284° West 394 453 43,000  Level Albuquerque Center
Sun 04:11:29 PM 32.7892 -109.4769 284° West 393 452 43,000  Level Albuquerque Center
Sun 04:12:31 PM 32.8164 -109.6008 285° West 391 450 43,000  Level Albuquerque Center
Sun 04:13:33 PM 32.8428 -109.7267 284° West 393 452 43,000  Level Albuquerque Center
Sun 04:14:35 PM 32.8744 -109.8769 284° West 393 452 43,000  Level Albuquerque Center
Sun 04:15:37 PM 32.9000 -110.0017 284° West 391 450 43,000  Level Albuquerque Center
Sun 04:16:39 PM 32.9297 -110.1272 286° West 395 455 43,000  Level Albuquerque Center
Sun 04:17:41 PM 32.9553 -110.2517 284° West 394 453 43,000  Level Albuquerque Center
Sun 04:18:42 PM 32.9797 -110.3756 283° West 390 449 43,000  Level Albuquerque Center
Sun 04:19:44 PM 33.0056 -110.5003 284° West 390 449 43,000  Level Albuquerque Center
Sun 04:20:46 PM 33.0361 -110.6483 284° West 388 447 43,000  Level Albuquerque Center
Sun 04:21:48 PM 33.0611 -110.7750 283° West 386 444 43,000  Level Albuquerque Center
Sun 04:22:50 PM 33.0869 -110.8989 284° West 386 444 43,000  Level Albuquerque Center
Sun 04:23:52 PM 33.1108 -111.0222 283° West 383 441 43,000  Level Albuquerque Center
Sun 04:24:54 PM 33.1369 -111.1475 284° West 389 448 43,000  Level Albuquerque Center
Sun 04:25:56 PM 33.1619 -111.2744 283° West 392 451 43,000  Level Albuquerque Center
Sun 04:26:58 PM 33.1858 -111.4033 283° West 396 456 43,000  Level Albuquerque Center
Sun 04:27:59 PM 33.2153 -111.5581 283° West 398 458 43,000  Level Albuquerque Center
Sun 04:29:01 PM 33.2414 -111.6872 284° West 398 458 43,000  Level Albuquerque Center
Sun 04:30:03 PM 33.2656 -111.8158 283° West 398 458 43,000  Level Albuquerque Center
Sun 04:31:05 PM 33.2903 -111.9436 283° West 395 455 43,000  Level Albuquerque Center
Sun 04:32:07 PM 33.3133 -112.0681 283° West 388 447 43,000 -194 Level Albuquerque Center
Sun 04:33:09 PM 33.3367 -112.1917 283° West 383 441 42,600 -823 Descending Albuquerque Center
Sun 04:34:11 PM 33.3586 -112.3181 282° West 386 444 41,300 -1,500 Descending Albuquerque Center
Sun 04:35:13 PM 33.3892 -112.4756 283° West 403 464 39,500 -1,463 Descending Albuquerque Center
Sun 04:36:14 PM 33.4119 -112.5992 282° West 404 465 38,300 -732 Descending Albuquerque Center
Sun 04:37:16 PM 33.4369 -112.7333 283° West 411 473 38,000 -145 Descending Albuquerque Center
Sun 04:38:18 PM 33.4625 -112.8661 283° West 413 475 38,000  Level Albuquerque Center
Sun 04:39:20 PM 33.4872 -112.9953 283° West 405 466 38,000  Level Albuquerque Center
Sun 04:40:22 PM 33.5164 -113.1503 283° West 401 461 38,000 -726 Level Albuquerque Center
Sun 04:41:24 PM 33.5400 -113.2769 283° West 395 455 36,500 -1,645 Descending Albuquerque Center
Sun 04:42:26 PM 33.5639 -113.4011 283° West 388 447 34,600 -1,220 Descending Albuquerque Center
Sun 04:43:27 PM 33.5894 -113.5339 283° West 402 463 34,000 -293 Descending Albuquerque Center
Sun 04:44:29 PM 33.6169 -113.6844 282° West 418 481 34,000  Level Albuquerque Center
Sun 04:45:31 PM 33.6414 -113.8169 283° West 412 474 34,000  Level Albuquerque Center
Sun 04:46:33 PM 33.6664 -113.9533 282° West 415 478 34,000  Level Albuquerque Center
Sun 04:47:35 PM 33.6928 -114.0942 283° West 426 490 34,000  Level Albuquerque Center
Sun 04:48:30 PM 33.7169 -114.2269 282° West 429 494 34,000  Level Los Angeles Center
Sun 04:49:32 PM 33.7422 -114.3631 283° West 422 486 34,000  Level Los Angeles Center
Sun 04:50:34 PM 33.7722 -114.5272 282° West 422 486 34,000  Level Los Angeles Center
Sun 04:51:36 PM 33.7819 -114.6667 275° West 421 484 34,000  Level Los Angeles Center
Sun 04:52:38 PM 33.7892 -114.8031 274° West 412 474 34,000  Level Los Angeles Center
Sun 04:53:52 PM 33.7975 -114.9411 274° West 415 478 34,000  Level Los Angeles Center
Sun 04:54:55 PM 33.8058 -115.1072 274° West 417 480 34,000  Level Los Angeles Center
Sun 04:55:57 PM 33.8156 -115.2728 274° West 415 478 34,000  Level Los Angeles Center
Sun 04:56:59 PM 33.8222 -115.4097 273° West 413 475 34,000 -48 Level Los Angeles Center
Sun 04:58:01 PM 33.8294 -115.5461 274° West 411 473 33,900 -823 Descending Los Angeles Center
Sun 04:59:03 PM 33.8361 -115.6819 273° West 408 470 32,300 -1,632 Descending Los Angeles Center
Sun 05:00:06 PM 33.8433 -115.8200 274° West 417 480 30,500 -2,352 Descending Los Angeles Center
Sun 05:01:08 PM 33.8489 -115.9550 273° West 409 471 27,400 -3,048 Descending Los Angeles Center
Sun 05:02:10 PM 33.8572 -116.1239 273° West 420 483 24,200 -2,855 Descending Los Angeles Center
Sun 05:03:12 PM 33.8636 -116.2642 273° West 423 487 21,500 -2,468 Descending Los Angeles Center
Sun 05:04:14 PM 33.8686 -116.4011 273° West 415 478 19,100 -2,081 Descending Los Angeles Center
Sun 05:05:16 PM 33.8747 -116.5303 273° West 394 453 17,200 -1,887 Descending Los Angeles Center
Sun 05:06:18 PM 33.8814 -116.6586 274° West 388 447 15,200 -1,597 Descending Los Angeles Center
Sun 05:07:20 PM 33.8786 -116.8078 269° West 383 441 13,900 -629 Descending Los Angeles Center
Sun 05:08:22 PM 33.8622 -116.9328 261° West 379 436 13,900 -823 Level Los Angeles Center
Sun 05:09:24 PM 33.8472 -117.0558 262° West 378 435 12,200 -1,597 Descending Los Angeles Center
Sun 05:10:26 PM 33.8361 -117.1400 261° West 337 388 10,600 -2,122 Descending Los Angeles Center
Sun 05:10:46 PM 33.8333 -117.2000 267° West 301 346 9,300 -2,108 Descending Southern California TRACON
Sun 05:11:40 PM 33.8167 -117.3000 259° West 294 338 8,000 -700 Descending Southern California TRACON
Sun 05:12:46 PM 33.8000 -117.3833 256° West 261 300 7,900 -53 Descending Southern California TRACON
Sun 05:13:33 PM 33.7978 -117.4464 268° West 252 290 7,900 -220 Level Los Angeles Center
Sun 05:14:35 PM 33.7897 -117.5156 262° West 219 252 7,500 -629 Descending Los Angeles Center
Sun 05:15:37 PM 33.7814 -117.5869 262° West 217 250 6,600 -455 Descending Los Angeles Center
Sun 05:16:47 PM 33.8000 -117.6667 286° West 188 216 6,500 -554 Descending Southern California TRACON
Sun 05:17:47 PM 33.8167 -117.7167 292° West 184 212 5,400 -1,240 Descending Southern California TRACON
Sun 05:18:48 PM 33.8167 -117.7667 270° West 191 220 4,000 -1,240 Descending Southern California TRACON
Sun 05:19:48 PM 33.7667 -117.8167 220° Southwest 174 200 2,900 -1,200 Descending Southern California TRACON
Sun 05:20:48 PM 33.7333 -117.8333 203° Southwest 140 161 1,600 -1,100 Descending Southern California TRACON
Sun 05:21:48 PM 33.7000 -117.8500 203° Southwest 130 150 700 -900 Descending Southern California TRACON
Sun 05:24:00 PM 33.6757 -117.8682 132° Southeast  Level Estimated
Sun 05:31:00 PM 33.6757 -117.8682 132° Southeast  Level Estimated

Login

Don't have an account? Register now (free) for customized features, flight alerts, and more!